Time;durP1;ratioP1;P1;durP2;ratioP2;P2;SDS_P1;SDS_P2;PMS_P1;PMS_P2;Temp;Humidity;BMP_temperature;BMP_pressure;BME280_temperature;BME280_humidity;BME280_pressure;Samples;Min_cycle;Max_cycle;Signal;HPM_P1;HPM_P2
2023/08/15 00:01:35;;;;;;;5.20;4.70;;;;;;;22.63;75.34;100960.46;84691;278;136977;-64
2023/08/15 00:03:37;;;;;;;9.30;8.30;;;;;;;22.67;75.60;100960.34;84620;278;22631;-63
2023/08/15 00:05:39;;;;;;;5.20;4.70;;;;;;;22.72;75.39;100961.98;84558;278;137118;-66
2023/08/15 00:07:40;;;;;;;4.30;3.90;;;;;;;22.77;74.67;100959.91;84648;278;22773;-67
2023/08/15 00:09:42;;;;;;;4.40;3.60;;;;;;;22.76;74.57;100961.81;84484;278;138929;-68
2023/08/15 00:11:44;;;;;;;6.70;4.30;;;;;;;22.72;74.43;100961.07;86000;271;25217;-63
2023/08/15 00:13:46;;;;;;;6.90;6.30;;;;;;;22.69;74.44;100965.05;84372;278;137175;-62
2023/08/15 00:15:48;;;;;;;7.60;7.00;;;;;;;22.69;74.93;100964.92;84502;280;25301;-64
2023/08/15 00:17:50;;;;;;;9.90;7.90;;;;;;;22.72;74.86;100964.42;84574;276;136414;-68
2023/08/15 00:19:52;;;;;;;5.80;5.20;;;;;;;22.79;75.01;100963.64;84508;278;22962;-69
2023/08/15 00:21:54;;;;;;;5.60;4.60;;;;;;;22.83;74.03;100964.16;84502;278;136251;-63
2023/08/15 00:23:55;;;;;;;6.90;6.30;;;;;;;22.79;74.36;100965.70;84572;278;25918;-67
2023/08/15 00:25:57;;;;;;;6.00;4.10;;;;;;;22.77;74.66;100965.79;84463;278;136316;-65
2023/08/15 00:27:59;;;;;;;3.90;3.70;;;;;;;22.79;74.34;100968.79;84228;280;22549;-64
2023/08/15 00:30:01;;;;;;;5.20;4.90;;;;;;;22.78;74.52;100969.55;84508;278;136840;-63
2023/08/15 00:32:04;;;;;;;4.70;4.40;;;;;;;22.73;74.83;100970.59;84397;278;137481;-65
2023/08/15 00:34:05;;;;;;;6.70;4.40;;;;;;;22.71;75.01;100970.21;84319;280;25342;-66
2023/08/15 00:36:07;;;;;;;6.80;6.20;;;;;;;22.68;75.37;100971.61;84240;278;136876;-64
2023/08/15 00:38:09;;;;;;;7.00;5.50;;;;;;;22.68;75.82;100973.02;84333;280;24604;-63
2023/08/15 00:40:11;;;;;;;6.20;5.10;;;;;;;22.67;75.55;100974.86;84487;278;138034;-62
2023/08/15 00:42:14;;;;;;;4.20;3.80;;;;;;;22.61;75.67;100975.55;84589;267;22697;-63
2023/08/15 00:44:16;;;;;;;7.80;4.30;;;;;;;22.52;75.97;100981.14;84347;267;136336;-65
2023/08/15 00:46:19;;;;;;;3.60;3.40;;;;;;;22.40;76.38;100979.73;84397;278;26428;-63
2023/08/15 00:48:21;;;;;;;4.60;4.20;;;;;;;22.26;77.27;100981.42;84034;280;136598;-76
2023/08/15 00:50:23;;;;;;;11.40;4.50;;;;;;;22.16;78.05;100985.19;84286;278;23531;-70
2023/08/15 00:52:26;;;;;;;5.40;4.90;;;;;;;22.12;79.03;100985.29;84138;278;137381;-65
2023/08/15 00:54:28;;;;;;;5.80;5.40;;;;;;;22.11;79.37;100982.73;84230;278;22545;-63
2023/08/15 00:56:29;;;;;;;7.30;5.00;;;;;;;22.13;80.04;100984.12;84277;279;137052;-64
2023/08/15 00:58:32;;;;;;;5.90;5.40;;;;;;;22.17;80.00;100983.79;84290;285;24912;-62
2023/08/15 01:00:34;;;;;;;4.60;4.30;;;;;;;22.21;80.28;100980.91;84472;278;137581;-64
2023/08/15 01:02:36;;;;;;;6.40;4.60;;;;;;;22.27;79.60;100980.65;84422;279;24140;-63
2023/08/15 01:04:41;;;;;;;7.60;6.90;;;;;;;22.28;79.52;100980.83;84195;278;137059;-66
2023/08/15 01:06:43;;;;;;;5.30;4.90;;;;;;;22.30;79.69;100983.52;84507;280;22544;-65
2023/08/15 01:08:46;;;;;;;4.10;3.80;;;;;;;22.27;79.48;100982.34;84563;278;136509;-64
2023/08/15 01:10:48;;;;;;;5.10;4.60;;;;;;;22.20;79.71;100980.35;84438;280;22959;-65
2023/08/15 01:13:12;;;;;;;4.70;3.80;;;;;;;22.13;80.11;100983.09;84463;280;135760;-65
2023/08/15 01:15:22;;;;;;;4.70;4.10;;;;;;;22.03;80.49;100977.41;84644;279;22683;-63
2023/08/15 01:17:31;;;;;;;4.90;4.60;;;;;;;21.93;80.84;100979.42;84437;279;137284;-63
2023/08/15 01:19:39;;;;;;;4.80;4.40;;;;;;;21.85;81.29;100973.27;84607;280;22597;-64
2023/08/15 01:21:48;;;;;;;4.40;4.00;;;;;;;21.76;81.71;100969.73;84548;278;137113;-63
2023/08/15 01:23:53;;;;;;;4.10;3.70;;;;;;;21.70;82.07;100971.58;84734;278;22683;-61
2023/08/15 01:25:57;;;;;;;7.80;5.00;;;;;;;21.65;82.56;100972.09;84538;279;138276;-63
2023/08/15 01:27:59;;;;;;;5.50;5.00;;;;;;;21.61;83.04;100971.42;84616;278;24270;-65
2023/08/15 01:30:02;;;;;;;4.50;4.10;;;;;;;21.57;83.76;100971.86;84672;279;136747;-65
2023/08/15 01:32:15;;;;;;;7.00;4.20;;;;;;;21.55;84.20;100973.67;84465;279;138045;-61
2023/08/15 01:34:17;;;;;;;4.50;4.10;;;;;;;21.56;83.98;100973.80;84635;280;24196;-68
2023/08/15 01:36:25;;;;;;;10.40;4.30;;;;;;;21.58;84.58;100973.19;84537;278;137380;-64
2023/08/15 01:38:39;;;;;;;4.90;4.40;;;;;;;21.65;84.38;100972.16;84541;278;23646;-65
2023/08/15 01:40:42;;;;;;;4.90;4.60;;;;;;;21.72;84.11;100968.95;84620;278;137079;-68
2023/08/15 01:42:45;;;;;;;5.50;5.00;;;;;;;21.77;83.96;100967.78;84387;281;23736;-62
2023/08/15 01:44:50;;;;;;;4.20;3.90;;;;;;;21.83;83.60;100968.63;84379;280;138353;-62
2023/08/15 01:46:51;;;;;;;5.70;4.60;;;;;;;21.87;83.00;100967.28;84399;280;25365;-65
2023/08/15 01:48:54;;;;;;;9.30;5.40;;;;;;;21.88;82.60;100968.55;84483;278;136562;-65
2023/08/15 01:50:55;;;;;;;5.40;4.90;;;;;;;21.89;82.16;100966.17;84484;280;23273;-67
2023/08/15 01:52:57;;;;;;;5.90;5.30;;;;;;;21.91;81.74;100968.54;84562;266;136533;-66
2023/08/15 01:54:59;;;;;;;7.40;6.70;;;;;;;21.93;81.66;100968.13;84434;268;25164;-68
2023/08/15 01:57:02;;;;;;;5.80;4.40;;;;;;;21.95;81.77;100971.15;84412;267;136545;-65
2023/08/15 01:59:04;;;;;;;6.90;4.10;;;;;;;21.99;81.32;100967.73;84478;280;24163;-67
2023/08/15 02:01:06;;;;;;;5.60;5.20;;;;;;;21.98;81.14;100967.83;84303;280;137075;-63
2023/08/15 02:03:07;;;;;;;6.90;6.20;;;;;;;21.88;81.43;100961.88;84548;278;22628;-66
2023/08/15 02:05:12;;;;;;;7.00;6.40;;;;;;;21.96;82.09;100974.42;84535;278;136815;-66
2023/08/15 02:07:13;;;;;;;9.60;4.10;;;;;;;22.04;82.14;100973.81;84685;278;22542;-64
2023/08/15 02:09:16;;;;;;;4.40;4.10;;;;;;;22.04;81.24;100968.17;84326;280;137709;-66
2023/08/15 02:11:18;;;;;;;5.20;4.10;;;;;;;22.07;81.07;100977.77;84577;278;25129;-64
2023/08/15 02:13:20;;;;;;;5.10;4.20;;;;;;;22.02;81.17;100976.52;84533;278;137496;-66
2023/08/15 02:15:21;;;;;;;4.40;4.10;;;;;;;21.93;81.20;100976.51;84591;278;22546;-70
2023/08/15 02:17:23;;;;;;;6.00;4.80;;;;;;;21.86;81.83;100978.11;84360;279;136536;-62
2023/08/15 02:19:31;;;;;;;4.60;4.30;;;;;;;21.79;82.92;100976.71;84691;278;22734;-59
2023/08/15 02:21:35;;;;;;;5.40;4.90;;;;;;;21.79;83.42;100974.52;84393;278;136495;-61
2023/08/15 02:23:37;;;;;;;5.40;4.90;;;;;;;21.78;83.20;100973.17;84372;267;25298;-61
2023/08/15 02:25:39;;;;;;;4.40;4.10;;;;;;;21.76;83.10;100977.22;84537;278;138405;-65
2023/08/15 02:27:41;;;;;;;4.90;4.60;;;;;;;21.74;83.09;100975.50;84377;280;22571;-60
2023/08/15 02:29:42;;;;;;;4.50;4.10;;;;;;;21.71;83.54;100976.91;84470;278;136804;-62
2023/08/15 02:31:48;;;;;;;5.20;4.70;;;;;;;21.68;83.74;100980.06;84524;278;22675;-64
2023/08/15 02:33:50;;;;;;;6.60;4.60;;;;;;;21.66;83.84;100980.74;84592;278;137294;-61
2023/08/15 02:35:54;;;;;;;9.60;4.60;;;;;;;21.62;84.39;100979.22;84454;280;22647;-64
2023/08/15 02:37:58;;;;;;;4.60;4.20;;;;;;;21.58;84.83;100985.23;84609;278;137555;-59
2023/08/15 02:40:06;;;;;;;5.50;4.20;;;;;;;21.57;85.10;100984.34;84541;278;22555;-63
2023/08/15 02:42:07;;;;;;;5.20;4.80;;;;;;;21.57;85.07;100983.96;84484;278;22547;-62
2023/08/15 02:44:09;;;;;;;5.60;5.20;;;;;;;21.62;85.78;100984.46;84409;278;137268;-62
2023/08/15 02:46:11;;;;;;;5.20;4.80;;;;;;;21.69;86.12;100984.31;84536;278;25636;-62
2023/08/15 02:48:13;;;;;;;5.00;4.70;;;;;;;21.80;85.94;100985.03;84393;278;138658;-61
2023/08/15 02:50:15;;;;;;;6.80;5.40;;;;;;;21.84;85.10;100974.02;84606;278;25361;-61
2023/08/15 02:52:17;;;;;;;5.50;4.80;;;;;;;22.01;84.61;100987.85;84558;278;137162;-59
2023/08/15 02:54:20;;;;;;;5.50;5.10;;;;;;;22.11;84.01;100989.02;84614;278;22548;-64
2023/08/15 02:56:22;;;;;;;6.10;4.50;;;;;;;22.23;83.26;100991.70;84606;278;136828;-61
2023/08/15 02:58:23;;;;;;;4.90;4.30;;;;;;;22.32;82.47;100995.89;84665;278;22546;-62
2023/08/15 03:01:36;;;;;;;4.10;3.90;;;;;;;22.26;82.35;100995.11;82657;308;546541;-62
2023/08/15 03:03:39;;;;;;;5.00;4.60;;;;;;;22.24;82.24;101002.79;83684;297;22764;-64
2023/08/15 03:05:41;;;;;;;5.30;4.90;;;;;;;22.21;82.29;101005.64;83462;297;137206;-59
2023/08/15 03:07:43;;;;;;;4.80;4.40;;;;;;;22.17;82.30;101006.21;83589;297;24142;-61
2023/08/15 03:09:45;;;;;;;5.40;4.80;;;;;;;22.19;82.29;101006.61;83573;297;136609;-61
2023/08/15 03:11:49;;;;;;;4.80;4.50;;;;;;;22.23;82.57;101008.44;83598;298;23031;-62
2023/08/15 03:13:53;;;;;;;4.80;4.10;;;;;;;22.40;82.05;101008.10;83523;299;136261;-61
2023/08/15 03:15:56;;;;;;;5.20;4.80;;;;;;;22.60;81.29;101009.66;83643;290;413750;-59
2023/08/15 03:17:59;;;;;;;5.40;4.30;;;;;;;22.85;80.41;101007.95;83828;290;136418;-61
2023/08/15 03:20:01;;;;;;;4.30;4.00;;;;;;;23.11;78.99;101007.59;83863;290;22571;-60
2023/08/15 03:22:06;;;;;;;5.10;4.40;;;;;;;23.35;77.52;101012.64;83899;290;22663;-61
2023/08/15 03:24:08;;;;;;;6.10;4.90;;;;;;;23.58;76.46;101008.98;83837;290;135980;-61
2023/08/15 03:26:10;;;;;;;6.90;6.30;;;;;;;23.80;75.50;101015.89;83951;290;24163;-60
2023/08/15 03:28:12;;;;;;;6.80;5.70;;;;;;;24.04;74.89;101012.75;83862;290;136344;-61
2023/08/15 03:30:14;;;;;;;5.10;4.00;;;;;;;24.25;74.08;101014.63;83925;290;24110;-60
2023/08/15 03:32:16;;;;;;;8.80;5.50;;;;;;;24.46;73.43;101012.57;83729;291;137654;-60
2023/08/15 03:34:18;;;;;;;11.30;4.80;;;;;;;24.74;72.55;101015.17;84047;289;22615;-60
2023/08/15 03:36:19;;;;;;;5.60;4.00;;;;;;;24.98;70.83;101016.17;83809;289;137751;-64
2023/08/15 03:38:22;;;;;;;4.70;4.20;;;;;;;25.27;69.27;101017.09;83889;290;25146;-61
2023/08/15 03:40:24;;;;;;;4.60;3.90;;;;;;;25.57;67.51;101020.13;83892;290;136826;-61
2023/08/15 03:42:29;;;;;;;9.00;4.10;;;;;;;25.87;66.08;101019.27;83868;289;22644;-62
2023/08/15 03:44:32;;;;;;;3.90;3.40;;;;;;;26.14;65.01;101022.58;83899;287;137444;-62
2023/08/15 03:46:34;;;;;;;4.00;3.20;;;;;;;26.38;64.40;101026.56;83892;290;25149;-62
2023/08/15 03:48:36;;;;;;;5.70;3.70;;;;;;;26.62;63.58;101025.89;83804;289;136147;-58
2023/08/15 03:50:38;;;;;;;5.90;3.70;;;;;;;26.90;62.62;101020.59;83749;291;26217;-62
2023/08/15 03:52:40;;;;;;;5.20;3.10;;;;;;;27.17;61.21;101021.05;83627;290;135956;-62
2023/08/15 03:54:43;;;;;;;5.10;3.90;;;;;;;27.45;60.38;101018.69;83890;290;22662;-61
2023/08/15 03:56:44;;;;;;;4.30;3.90;;;;;;;27.78;58.90;101021.48;83904;288;138061;-61
2023/08/15 03:58:46;;;;;;;3.30;3.10;;;;;;;28.12;58.11;101018.73;83967;287;24104;-62
2023/08/15 04:00:49;;;;;;;23.20;8.70;;;;;;;28.42;56.63;101018.45;83871;286;136136;-62
2023/08/15 04:02:51;;;;;;;7.40;5.10;;;;;;;28.75;55.58;101017.36;84091;286;22674;-61
2023/08/15 04:04:53;;;;;;;9.60;4.00;;;;;;;29.00;54.65;101019.63;83905;287;135858;-60
2023/08/15 04:06:55;;;;;;;7.90;3.90;;;;;;;29.16;54.23;101019.52;83995;286;25146;-62
2023/08/15 04:08:57;;;;;;;7.90;3.50;;;;;;;29.38;53.89;101016.61;83931;286;135974;-61
2023/08/15 04:11:01;;;;;;;5.10;3.40;;;;;;;29.61;52.68;101010.25;83941;285;22551;-62
2023/08/15 04:13:07;;;;;;;3.80;3.30;;;;;;;29.83;52.07;101009.84;83907;285;136097;-61
2023/08/15 04:15:10;;;;;;;7.00;3.50;;;;;;;30.08;50.87;101011.38;84194;286;25718;-61
2023/08/15 04:17:12;;;;;;;7.70;3.70;;;;;;;30.40;49.76;101010.34;83901;286;137599;-60
2023/08/15 04:19:14;;;;;;;4.20;3.40;;;;;;;30.71;48.68;101012.30;83914;286;22593;-59
2023/08/15 04:21:15;;;;;;;3.70;3.30;;;;;;;30.91;46.91;101010.80;83770;288;135954;-65
2023/08/15 04:23:17;;;;;;;4.80;2.90;;;;;;;31.03;46.33;101010.36;83894;287;22736;-62
2023/08/15 04:25:20;;;;;;;3.00;2.80;;;;;;;31.11;45.51;101008.59;83891;286;136045;-60
2023/08/15 04:27:22;;;;;;;4.00;2.60;;;;;;;31.20;45.16;101007.44;84005;287;24121;-59
2023/08/15 04:29:24;;;;;;;7.20;3.30;;;;;;;31.35;44.42;101007.36;83905;287;135945;-62
2023/08/15 04:31:26;;;;;;;6.70;4.00;;;;;;;31.38;44.22;101008.77;83888;288;22674;-62
2023/08/15 04:33:28;;;;;;;6.20;4.60;;;;;;;31.45;43.94;101009.48;83827;286;136011;-63
2023/08/15 04:35:29;;;;;;;4.60;4.20;;;;;;;31.55;43.68;101010.37;83982;284;23715;-61
2023/08/15 04:37:31;;;;;;;6.10;3.90;;;;;;;31.68;43.30;101015.38;83951;283;137374;-63
2023/08/15 04:39:34;;;;;;;5.80;3.40;;;;;;;31.76;42.89;101015.11;83969;284;22551;-61
2023/08/15 04:41:35;;;;;;;6.40;4.00;;;;;;;31.77;42.78;101012.45;83908;286;136642;-69
2023/08/15 04:43:38;;;;;;;4.00;3.60;;;;;;;31.71;42.64;101015.80;84058;286;24168;-68
2023/08/15 04:45:46;;;;;;;4.10;3.50;;;;;;;31.59;42.46;101019.08;83999;285;136066;-71
2023/08/15 04:47:47;;;;;;;6.60;3.20;;;;;;;31.53;42.82;101021.27;84131;284;24024;-71
2023/08/15 04:49:49;;;;;;;3.90;3.60;;;;;;;31.52;42.62;101020.14;83970;284;135967;-70
2023/08/15 04:51:52;;;;;;;3.20;2.90;;;;;;;31.40;42.69;101015.64;84165;284;22551;-70
2023/08/15 04:53:54;;;;;;;6.40;5.80;;;;;;;31.38;43.19;101021.54;84020;284;136898;-69
2023/08/15 04:55:57;;;;;;;5.50;5.10;;;;;;;31.48;42.86;101021.27;84058;285;22640;-69
2023/08/15 04:58:00;;;;;;;6.90;5.80;;;;;;;31.61;42.49;101022.04;84071;284;136352;-70
2023/08/15 05:00:08;;;;;;;6.80;4.90;;;;;;;31.76;42.15;101025.70;84034;285;22939;-69
2023/08/15 05:02:12;;;;;;;5.90;5.40;;;;;;;31.96;42.15;101024.85;84245;284;22606;-68
2023/08/15 05:04:14;;;;;;;6.20;5.70;;;;;;;32.13;41.43;101023.27;84057;284;136268;-66
2023/08/15 05:06:16;;;;;;;5.70;5.10;;;;;;;32.23;41.10;101023.38;84062;286;25833;-67
2023/08/15 05:08:18;;;;;;;7.60;6.30;;;;;;;32.37;41.42;101025.41;84085;286;135809;-70
2023/08/15 05:10:20;;;;;;;4.40;3.90;;;;;;;32.54;40.89;101025.05;84087;284;22813;-70
2023/08/15 05:12:22;;;;;;;5.80;5.10;;;;;;;32.68;40.32;101023.90;84062;284;135899;-72
2023/08/15 05:14:25;;;;;;;6.30;4.20;;;;;;;32.69;40.25;101026.27;84115;283;23901;-69
2023/08/15 05:16:27;;;;;;;5.80;5.30;;;;;;;32.69;40.25;101021.64;84023;284;136089;-68
2023/08/15 05:18:29;;;;;;;9.50;3.80;;;;;;;32.71;40.14;101023.69;84032;285;22567;-70
2023/08/15 05:20:32;;;;;;;8.30;5.10;;;;;;;32.73;40.22;101024.52;83828;284;136051;-70
2023/08/15 05:22:33;;;;;;;6.00;3.60;;;;;;;32.79;39.98;101021.63;84060;284;23882;-69
2023/08/15 05:24:35;;;;;;;8.80;3.30;;;;;;;32.89;39.82;101020.07;84014;285;137583;-70
2023/08/15 05:26:37;;;;;;;4.20;3.80;;;;;;;32.90;39.79;101021.34;84212;283;22569;-67
2023/08/15 05:28:39;;;;;;;5.30;4.30;;;;;;;32.77;39.88;101024.60;84149;284;137488;-69
2023/08/15 05:30:43;;;;;;;4.00;3.30;;;;;;;32.55;40.54;101023.27;84109;285;24102;-70
2023/08/15 05:32:45;;;;;;;4.30;3.80;;;;;;;32.36;41.03;101026.60;84086;284;136162;-67
2023/08/15 05:34:47;;;;;;;5.00;3.20;;;;;;;32.21;41.35;101024.38;84150;284;22532;-69
2023/08/15 05:36:49;;;;;;;5.90;3.50;;;;;;;32.14;41.52;101025.06;83932;276;136272;-68
2023/08/15 05:38:51;;;;;;;6.00;3.80;;;;;;;32.11;41.78;101025.05;84038;285;24276;-68
2023/08/15 05:40:53;;;;;;;7.70;3.80;;;;;;;32.14;41.92;101022.63;84089;284;135900;-68
2023/08/15 05:42:55;;;;;;;6.60;3.20;;;;;;;32.20;41.76;101018.45;84171;283;22690;-70
2023/08/15 05:44:57;;;;;;;3.70;3.40;;;;;;;32.23;41.69;101018.36;84009;284;137902;-70
2023/08/15 05:46:59;;;;;;;3.90;3.40;;;;;;;32.19;41.78;101019.25;84236;283;24110;-67
2023/08/15 05:49:04;;;;;;;4.70;4.20;;;;;;;32.15;42.16;101019.45;84206;283;136108;-69
2023/08/15 05:51:06;;;;;;;6.20;5.40;;;;;;;32.12;41.87;101019.70;84167;283;24134;-71
2023/08/15 05:53:08;;;;;;;7.40;3.70;;;;;;;32.09;42.37;101022.43;84077;286;136496;-70
2023/08/15 05:55:10;;;;;;;3.90;3.50;;;;;;;32.11;42.51;101025.02;84270;284;23710;-70
2023/08/15 05:57:12;;;;;;;5.40;4.50;;;;;;;32.13;42.46;101027.36;84005;284;136510;-70
2023/08/15 05:59:14;;;;;;;3.80;2.80;;;;;;;32.09;42.13;101028.34;84040;284;22550;-73
2023/08/15 06:01:15;;;;;;;7.30;3.30;;;;;;;32.01;41.78;101028.91;83979;286;137705;-70
2023/08/15 06:03:19;;;;;;;6.80;3.20;;;;;;;31.98;41.80;101028.35;85078;284;24276;-68
2023/08/15 06:05:43;;;;;;;;;;;;;;;31.98;42.02;101028.10;85084;284;137449;-69
2023/08/15 06:07:44;;;;;;;7.00;6.40;;;;;;;31.98;42.72;101030.14;84889;284;24194;-69
2023/08/15 06:09:46;;;;;;;10.80;6.20;;;;;;;31.97;42.44;101031.27;84177;283;137579;-70
2023/08/15 06:11:50;;;;;;;6.10;4.30;;;;;;;32.01;42.43;101031.95;84236;284;22552;-72
2023/08/15 06:13:51;;;;;;;7.00;6.40;;;;;;;32.03;42.31;101030.27;84120;284;136317;-69
2023/08/15 06:15:53;;;;;;;7.20;5.10;;;;;;;32.08;42.40;101027.92;84055;284;22647;-70
2023/08/15 06:17:55;;;;;;;7.50;6.80;;;;;;;32.13;42.80;101025.96;83936;283;136338;-68
2023/08/15 06:19:57;;;;;;;5.50;3.40;;;;;;;32.28;42.58;101031.45;84277;283;22762;-67
2023/08/15 06:21:59;;;;;;;8.90;6.30;;;;;;;32.43;42.12;101030.36;84125;283;135883;-69
2023/08/15 06:24:01;;;;;;;3.90;3.40;;;;;;;32.53;41.87;101028.55;84139;285;25221;-69
2023/08/15 06:26:03;;;;;;;8.40;6.30;;;;;;;32.62;41.36;101028.15;84072;285;22556;-71
2023/08/15 06:28:05;;;;;;;7.10;4.40;;;;;;;32.61;41.22;101029.02;84074;284;136392;-71
2023/08/15 06:30:08;;;;;;;5.50;4.90;;;;;;;32.54;41.52;101026.31;84166;284;24255;-69
2023/08/15 06:32:27;;;;;;;10.60;7.60;;;;;;;32.53;41.51;101028.55;84083;284;136594;-66
2023/08/15 06:34:28;;;;;;;3.50;3.20;;;;;;;32.66;41.56;101028.39;84128;284;22582;-69
2023/08/15 06:36:32;;;;;;;5.60;4.10;;;;;;;32.79;41.34;101024.67;84003;284;136622;-69
2023/08/15 06:38:34;;;;;;;8.40;5.30;;;;;;;32.86;41.15;101022.70;84273;284;22647;-71
2023/08/15 06:40:36;;;;;;;5.20;3.80;;;;;;;32.84;40.89;101026.63;84107;272;136426;-71
2023/08/15 06:42:38;;;;;;;4.40;4.10;;;;;;;32.77;41.03;101026.27;84213;273;25137;-71
2023/08/15 06:44:43;;;;;;;8.10;3.90;;;;;;;32.74;41.15;101024.64;84114;284;137849;-71
2023/08/15 06:46:45;;;;;;;3.70;3.20;;;;;;;32.63;41.11;101021.38;84292;284;24140;-71
2023/08/15 06:48:48;;;;;;;4.60;4.20;;;;;;;32.64;41.46;101025.23;84011;285;137666;-71
2023/08/15 06:50:49;;;;;;;7.40;5.90;;;;;;;32.64;41.38;101026.55;84262;283;25317;-69
2023/08/15 06:52:51;;;;;;;4.70;4.30;;;;;;;32.59;41.48;101025.86;84082;283;137720;-71
2023/08/15 06:54:53;;;;;;;4.00;2.90;;;;;;;32.59;41.35;101026.41;84132;285;23844;-70
2023/08/15 06:56:55;;;;;;;4.60;3.50;;;;;;;32.69;41.36;101023.58;84124;283;137803;-70
2023/08/15 06:59:01;;;;;;;6.30;3.10;;;;;;;32.79;41.15;101024.90;84182;284;25261;-70
2023/08/15 07:01:03;;;;;;;7.00;3.40;;;;;;;32.85;40.70;101026.60;84056;284;136752;-71
2023/08/15 07:03:07;;;;;;;6.60;4.10;;;;;;;32.91;40.53;101026.49;84224;283;25139;-71
2023/08/15 07:05:11;;;;;;;3.00;1.90;;;;;;;32.96;40.01;101028.02;84186;283;137927;-73
2023/08/15 07:07:13;;;;;;;2.80;1.90;;;;;;;33.02;39.12;101029.05;84075;285;26340;-69
2023/08/15 07:09:15;;;;;;;3.30;2.20;;;;;;;33.04;38.67;101030.80;84120;284;136263;-72
2023/08/15 07:11:16;;;;;;;3.50;1.50;;;;;;;32.94;38.23;101029.89;84268;277;22548;-70
2023/08/15 07:13:20;;;;;;;7.60;2.00;;;;;;;32.83;38.30;101028.58;84053;283;136827;-72
2023/08/15 07:15:22;;;;;;;3.40;1.90;;;;;;;32.74;38.75;101026.90;84098;283;22561;-69
2023/08/15 07:17:24;;;;;;;5.50;2.80;;;;;;;32.69;38.62;101023.51;84100;284;136442;-68
2023/08/15 07:19:26;;;;;;;1.80;1.70;;;;;;;32.57;39.23;101025.35;84279;280;24288;-68
2023/08/15 07:21:28;;;;;;;2.40;2.20;;;;;;;32.45;40.18;101026.35;84163;284;136569;-70
2023/08/15 07:23:30;;;;;;;4.90;2.30;;;;;;;32.27;40.45;101026.59;84150;284;24979;-69
2023/08/15 07:25:32;;;;;;;2.50;1.60;;;;;;;32.07;40.79;101032.84;83969;286;136453;-71
2023/08/15 07:27:34;;;;;;;4.50;1.70;;;;;;;31.95;41.02;101033.23;84225;284;22550;-67
2023/08/15 07:29:36;;;;;;;14.90;3.30;;;;;;;31.84;40.68;101033.86;84156;284;136236;-71
2023/08/15 07:31:38;;;;;;;16.80;3.00;;;;;;;31.71;40.88;101033.71;84167;284;24134;-70
2023/08/15 07:33:39;;;;;;;5.60;2.90;;;;;;;31.64;41.69;101034.87;84162;284;136598;-72
2023/08/15 07:35:42;;;;;;;3.00;2.60;;;;;;;31.58;42.18;101033.86;84134;284;22556;-70
2023/08/15 07:37:44;;;;;;;10.80;2.60;;;;;;;31.56;41.94;101034.23;83973;286;136508;-70
2023/08/15 07:40:00;;;;;;;1.90;1.80;;;;;;;31.53;41.82;101034.22;84259;283;24169;-71
2023/08/15 07:42:02;;;;;;;4.40;2.70;;;;;;;31.48;42.13;101040.66;84067;264;136149;-70
2023/08/15 07:44:05;;;;;;;3.00;2.10;;;;;;;31.45;41.82;101042.30;84065;286;136781;-72
2023/08/15 07:46:06;;;;;;;4.30;2.10;;;;;;;31.44;41.41;101039.70;84350;284;22670;-70
2023/08/15 07:48:08;;;;;;;2.00;1.90;;;;;;;31.42;41.46;101040.02;83938;284;136876;-69
2023/08/15 07:50:13;;;;;;;2.40;2.20;;;;;;;31.41;41.69;101039.38;84094;284;25378;-70
2023/08/15 07:52:15;;;;;;;2.80;1.80;;;;;;;31.41;42.18;101041.52;84032;284;136615;-68
2023/08/15 07:54:17;;;;;;;2.40;1.90;;;;;;;31.42;42.41;101037.87;84158;285;22567;-72
2023/08/15 07:56:19;;;;;;;4.50;1.60;;;;;;;31.43;41.70;101042.15;84265;284;136655;-68
2023/08/15 07:58:21;;;;;;;2.40;2.20;;;;;;;31.43;41.46;101038.55;84029;284;22550;-70
2023/08/15 08:00:23;;;;;;;2.60;1.10;;;;;;;31.44;41.31;101038.08;83908;284;137672;-70
2023/08/15 08:02:25;;;;;;;4.70;2.40;;;;;;;31.45;41.35;101036.20;84194;283;22813;-67
2023/08/15 08:04:27;;;;;;;3.80;1.50;;;;;;;31.40;41.31;101036.98;84101;283;136464;-67
2023/08/15 08:06:29;;;;;;;3.40;1.70;;;;;;;31.34;40.98;101035.23;84071;284;25235;-71
2023/08/15 08:08:34;;;;;;;2.20;1.50;;;;;;;31.24;40.76;101033.11;84027;283;136310;-70
2023/08/15 08:10:36;;;;;;;1.60;1.50;;;;;;;31.13;41.03;101034.80;84218;284;22917;-70
2023/08/15 08:12:39;;;;;;;1.90;1.80;;;;;;;31.06;41.41;101031.27;84191;283;136413;-69
2023/08/15 08:14:41;;;;;;;3.50;1.70;;;;;;;31.05;41.67;101033.30;84138;285;25274;-70
2023/08/15 08:16:56;;;;;;;1.70;1.60;;;;;;;31.11;41.56;101032.20;83946;286;136464;-67
2023/08/15 08:18:58;;;;;;;6.40;3.80;;;;;;;31.15;41.62;101033.14;84495;283;25294;-70
2023/08/15 08:21:01;;;;;;;3.00;1.30;;;;;;;31.18;42.33;101034.08;84076;283;136301;-70
2023/08/15 08:23:03;;;;;;;2.60;2.00;;;;;;;31.22;41.57;101035.41;84256;283;23745;-69
2023/08/15 08:25:16;;;;;;;3.60;1.90;;;;;;;31.28;41.58;101035.71;83961;283;136941;-71
2023/08/15 08:27:18;;;;;;;1.50;0.90;;;;;;;31.34;40.35;101037.17;84054;285;25377;-70
2023/08/15 08:29:19;;;;;;;2.60;1.10;;;;;;;31.33;40.01;101035.42;84171;284;136824;-70
2023/08/15 08:31:21;;;;;;;3.30;1.20;;;;;;;31.31;39.80;101040.34;84344;284;22550;-69
2023/08/15 08:33:23;;;;;;;1.60;0.70;;;;;;;31.29;39.72;101038.63;84092;284;136585;-68
2023/08/15 08:35:25;;;;;;;1.80;0.80;;;;;;;31.31;39.85;101037.36;84258;284;25132;-70
2023/08/15 08:37:27;;;;;;;8.00;1.70;;;;;;;31.35;39.16;101037.88;84049;284;136485;-67
2023/08/15 08:39:28;;;;;;;2.50;1.10;;;;;;;31.38;39.12;101038.20;84195;283;22573;-68
2023/08/15 08:41:36;;;;;;;3.70;1.10;;;;;;;31.41;38.63;101028.13;84285;284;136338;-72
2023/08/15 08:43:39;;;;;;;0.80;0.70;;;;;;;31.43;38.80;101030.52;84346;283;22562;-69
2023/08/15 08:45:50;;;;;;;1.40;0.70;;;;;;;31.42;38.23;101025.12;84271;283;136539;-72
2023/08/15 08:47:54;;;;;;;2.80;1.10;;;;;;;31.44;38.60;101027.83;84227;284;22563;-70
2023/08/15 08:49:58;;;;;;;1.50;1.40;;;;;;;31.46;38.93;101028.19;84042;283;136725;-70
2023/08/15 08:52:00;;;;;;;;;;;;;;;31.46;38.89;101023.23;84455;285;22635;-69
2023/08/15 08:54:02;;;;;;;1.80;1.60;;;;;;;31.41;39.11;101021.46;84215;283;22578;-69
2023/08/15 08:56:07;;;;;;;3.50;3.00;;;;;;;31.39;39.44;101019.83;84078;283;137852;-70
2023/08/15 08:58:11;;;;;;;3.30;1.30;;;;;;;31.39;39.67;101020.24;84206;285;23886;-70
2023/08/15 09:00:16;;;;;;;2.80;1.30;;;;;;;31.32;39.26;101008.92;84140;285;136437;-72
2023/08/15 09:02:21;;;;;;;3.50;1.50;;;;;;;31.33;39.62;101023.83;84032;283;25212;-69
2023/08/15 09:04:23;;;;;;;2.20;2.00;;;;;;;31.26;40.16;101015.99;83967;285;135798;-70
2023/08/15 09:06:28;;;;;;;2.30;2.20;;;;;;;31.21;40.10;101016.87;84036;284;25161;-69
2023/08/15 09:08:30;;;;;;;5.20;1.50;;;;;;;31.18;40.17;101011.98;84024;285;136405;-70
2023/08/15 09:10:32;;;;;;;2.60;1.60;;;;;;;31.19;40.46;101012.89;83972;284;23645;-67
2023/08/15 09:12:36;;;;;;;3.80;1.60;;;;;;;31.24;40.63;101011.12;83899;284;136465;-69
2023/08/15 09:14:41;;;;;;;4.60;2.10;;;;;;;31.30;40.61;101007.96;84163;284;22549;-71
2023/08/15 09:16:47;;;;;;;2.10;1.50;;;;;;;31.32;40.52;100996.17;83919;284;139003;-72
2023/08/15 09:18:49;;;;;;;3.00;1.30;;;;;;;31.44;40.00;101003.17;84238;284;22628;-70
2023/08/15 09:20:52;;;;;;;3.00;1.70;;;;;;;31.47;39.66;101005.88;83876;284;136430;-69
2023/08/15 09:22:58;;;;;;;1.70;1.60;;;;;;;31.50;39.62;101004.59;84233;283;25137;-70
2023/08/15 09:25:00;;;;;;;1.90;1.80;;;;;;;31.50;40.05;101005.35;84023;283;136730;-69
2023/08/15 09:27:06;;;;;;;3.30;1.40;;;;;;;31.48;40.06;101004.31;84140;285;23754;-69
2023/08/15 09:29:07;;;;;;;2.90;1.50;;;;;;;31.46;39.98;101005.45;84039;284;137386;-70
2023/08/15 09:31:11;;;;;;;5.70;1.70;;;;;;;31.47;40.26;101002.56;84106;284;25315;-68
2023/08/15 09:33:13;;;;;;;4.00;1.40;;;;;;;31.48;40.08;101001.39;83977;283;136621;-70
2023/08/15 09:35:18;;;;;;;2.90;1.90;;;;;;;31.52;39.59;100994.27;84491;284;25304;-69
2023/08/15 09:37:21;;;;;;;6.20;2.20;;;;;;;31.58;39.44;100991.88;84360;283;136278;-71